createdAt,value
2022-10-22T00:00:05.000Z,14.300000190734863
2022-10-22T00:00:20.000Z,14.300000190734863
2022-10-22T00:00:35.000Z,14.300000190734863
2022-10-22T00:00:50.000Z,14.300000190734863
2022-10-22T00:01:05.000Z,14.300000190734863
2022-10-22T00:01:19.000Z,14.300000190734863
2022-10-22T00:01:34.000Z,14.300000190734863
2022-10-22T00:01:49.000Z,14.300000190734863
2022-10-22T00:02:04.000Z,14.300000190734863
2022-10-22T00:02:19.000Z,14.300000190734863
2022-10-22T00:02:34.000Z,14.300000190734863
2022-10-22T00:02:49.000Z,14.300000190734863
2022-10-22T00:03:04.000Z,14.300000190734863
2022-10-22T00:03:20.000Z,14.300000190734863
2022-10-22T00:03:35.000Z,14.300000190734863
2022-10-22T00:03:50.000Z,14.399999618530273
2022-10-22T00:04:05.000Z,14.399999618530273
2022-10-22T00:04:20.000Z,14.399999618530273
2022-10-22T00:04:35.000Z,14.399999618530273
2022-10-22T00:04:50.000Z,14.399999618530273
2022-10-22T00:05:05.000Z,14.399999618530273
2022-10-22T00:05:20.000Z,14.399999618530273
2022-10-22T00:05:35.000Z,14.399999618530273
2022-10-22T00:05:50.000Z,14.399999618530273
2022-10-22T00:06:05.000Z,14.399999618530273
2022-10-22T00:06:19.000Z,14.399999618530273
2022-10-22T00:06:34.000Z,14.399999618530273
2022-10-22T00:06:49.000Z,14.399999618530273
2022-10-22T00:07:04.000Z,14.399999618530273
2022-10-22T00:07:19.000Z,14.5
2022-10-22T00:07:34.000Z,14.5
2022-10-22T00:07:49.000Z,14.5
2022-10-22T00:08:04.000Z,14.5
2022-10-22T00:08:19.000Z,14.5
2022-10-22T00:08:34.000Z,14.5
2022-10-22T00:08:49.000Z,14.5
2022-10-22T00:09:04.000Z,14.399999618530273
2022-10-22T00:09:20.000Z,14.5
2022-10-22T00:09:35.000Z,14.5
2022-10-22T00:09:50.000Z,14.5
2022-10-22T00:10:05.000Z,14.5
2022-10-22T00:10:20.000Z,14.5
2022-10-22T00:10:35.000Z,14.5
2022-10-22T00:10:50.000Z,14.5
2022-10-22T00:11:05.000Z,14.5
2022-10-22T00:11:20.000Z,14.5
2022-10-22T00:11:35.000Z,14.5
2022-10-22T00:11:50.000Z,14.5
2022-10-22T00:12:05.000Z,14.600000381469727
2022-10-22T00:12:20.000Z,14.600000381469727
2022-10-22T00:12:35.000Z,14.600000381469727
2022-10-22T00:12:49.000Z,14.600000381469727
2022-10-22T00:13:04.000Z,14.600000381469727
2022-10-22T00:13:19.000Z,14.600000381469727
2022-10-22T00:13:34.000Z,14.600000381469727
2022-10-22T00:13:49.000Z,14.600000381469727
2022-10-22T00:14:04.000Z,14.600000381469727
2022-10-22T00:14:19.000Z,14.600000381469727
2022-10-22T00:14:34.000Z,14.600000381469727
2022-10-22T00:14:49.000Z,14.600000381469727
2022-10-22T00:15:04.000Z,14.600000381469727
2022-10-22T00:15:19.000Z,14.600000381469727
2022-10-22T00:15:34.000Z,14.600000381469727
2022-10-22T00:15:49.000Z,14.600000381469727
2022-10-22T00:16:05.000Z,14.600000381469727
2022-10-22T00:16:20.000Z,14.600000381469727
2022-10-22T00:16:35.000Z,14.600000381469727
2022-10-22T00:16:50.000Z,14.600000381469727
2022-10-22T00:17:05.000Z,14.600000381469727
2022-10-22T00:17:20.000Z,14.600000381469727
2022-10-22T00:17:35.000Z,14.600000381469727
2022-10-22T00:17:50.000Z,14.600000381469727
2022-10-22T00:18:05.000Z,14.600000381469727
2022-10-22T00:18:20.000Z,14.600000381469727
2022-10-22T00:18:35.000Z,14.600000381469727
2022-10-22T00:18:50.000Z,14.600000381469727
2022-10-22T00:19:05.000Z,14.600000381469727
2022-10-22T00:19:20.000Z,14.600000381469727
2022-10-22T00:19:35.000Z,14.600000381469727
2022-10-22T00:19:50.000Z,14.600000381469727
2022-10-22T00:20:04.000Z,14.600000381469727
2022-10-22T00:20:19.000Z,14.600000381469727
2022-10-22T00:20:34.000Z,14.600000381469727
2022-10-22T00:20:49.000Z,14.600000381469727
2022-10-22T00:21:04.000Z,14.600000381469727
2022-10-22T00:21:19.000Z,14.600000381469727
2022-10-22T00:21:34.000Z,14.5
2022-10-22T00:21:49.000Z,14.5
2022-10-22T00:22:04.000Z,14.600000381469727
2022-10-22T00:22:19.000Z,14.5
2022-10-22T00:22:34.000Z,14.5
2022-10-22T00:23:04.000Z,14.5
2022-10-22T00:23:20.000Z,14.5
2022-10-22T00:23:35.000Z,14.5
2022-10-22T00:23:50.000Z,14.5
2022-10-22T00:24:05.000Z,14.5
2022-10-22T00:24:20.000Z,14.5
2022-10-22T00:24:35.000Z,14.5
2022-10-22T00:24:50.000Z,14.5
2022-10-22T00:25:05.000Z,14.5
2022-10-22T00:25:20.000Z,14.5
2022-10-22T00:25:35.000Z,14.5
2022-10-22T00:25:50.000Z,14.5
2022-10-22T00:26:05.000Z,14.5
2022-10-22T00:26:20.000Z,14.399999618530273
2022-10-22T00:26:35.000Z,14.399999618530273
2022-10-22T00:26:50.000Z,14.399999618530273
2022-10-22T00:27:04.000Z,14.399999618530273
2022-10-22T00:27:19.000Z,14.399999618530273
2022-10-22T00:27:34.000Z,14.399999618530273
2022-10-22T00:27:49.000Z,14.300000190734863
2022-10-22T00:28:04.000Z,14.300000190734863
2022-10-22T00:28:19.000Z,14.300000190734863
2022-10-22T00:28:34.000Z,14.300000190734863
2022-10-22T00:28:49.000Z,14.300000190734863
2022-10-22T00:29:04.000Z,14.300000190734863
2022-10-22T00:29:19.000Z,14.199999809265137
2022-10-22T00:29:34.000Z,14.199999809265137
2022-10-22T00:29:49.000Z,14.199999809265137
2022-10-22T00:30:04.000Z,14.199999809265137
2022-10-22T00:30:20.000Z,14.199999809265137
2022-10-22T00:30:35.000Z,14.199999809265137
2022-10-22T00:30:50.000Z,14.100000381469727
2022-10-22T00:31:05.000Z,14.100000381469727
2022-10-22T00:31:20.000Z,14.100000381469727
2022-10-22T00:31:35.000Z,14.100000381469727
2022-10-22T00:31:50.000Z,14.0
2022-10-22T00:32:05.000Z,14.0
2022-10-22T00:32:20.000Z,14.0
2022-10-22T00:32:35.000Z,14.0
2022-10-22T00:32:50.000Z,14.0
2022-10-22T00:33:04.000Z,14.0
2022-10-22T00:33:19.000Z,14.0
2022-10-22T00:33:34.000Z,14.0
2022-10-22T00:33:49.000Z,14.0
2022-10-22T00:34:04.000Z,14.0
2022-10-22T00:34:19.000Z,14.0
2022-10-22T00:34:34.000Z,14.0
2022-10-22T00:34:49.000Z,14.0
2022-10-22T00:35:04.000Z,14.0
2022-10-22T00:35:19.000Z,14.0
2022-10-22T00:35:34.000Z,14.0
2022-10-22T00:35:49.000Z,14.0
2022-10-22T00:36:04.000Z,14.0
2022-10-22T00:36:19.000Z,14.0
2022-10-22T00:36:34.000Z,14.0
2022-10-22T00:36:49.000Z,14.100000381469727
2022-10-22T00:37:05.000Z,14.100000381469727
2022-10-22T00:37:20.000Z,14.100000381469727
2022-10-22T00:37:35.000Z,14.100000381469727
2022-10-22T00:37:50.000Z,14.100000381469727
2022-10-22T00:38:05.000Z,14.100000381469727
2022-10-22T00:38:20.000Z,14.100000381469727
2022-10-22T00:38:35.000Z,14.100000381469727
2022-10-22T00:38:50.000Z,14.100000381469727
2022-10-22T00:39:05.000Z,14.100000381469727
2022-10-22T00:39:20.000Z,14.100000381469727
2022-10-22T00:39:35.000Z,14.100000381469727
2022-10-22T00:39:50.000Z,14.100000381469727
2022-10-22T00:40:05.000Z,14.100000381469727
2022-10-22T00:40:20.000Z,14.100000381469727
2022-10-22T00:40:35.000Z,14.100000381469727
2022-10-22T00:40:50.000Z,14.100000381469727
2022-10-22T00:41:05.000Z,14.100000381469727
2022-10-22T00:41:20.000Z,14.100000381469727
2022-10-22T00:41:34.000Z,14.100000381469727
2022-10-22T00:41:49.000Z,14.100000381469727
2022-10-22T00:42:04.000Z,14.100000381469727
2022-10-22T00:42:19.000Z,14.100000381469727
2022-10-22T00:42:34.000Z,14.100000381469727
2022-10-22T00:42:49.000Z,14.100000381469727
2022-10-22T00:43:04.000Z,14.100000381469727
2022-10-22T00:43:19.000Z,14.100000381469727
2022-10-22T00:43:34.000Z,14.100000381469727
2022-10-22T00:43:49.000Z,14.100000381469727
2022-10-22T00:44:04.000Z,14.100000381469727
2022-10-22T00:44:19.000Z,14.0
2022-10-22T00:44:34.000Z,14.100000381469727
2022-10-22T00:44:49.000Z,14.100000381469727
2022-10-22T00:45:04.000Z,14.100000381469727
2022-10-22T00:45:20.000Z,14.100000381469727
2022-10-22T00:45:35.000Z,14.100000381469727
2022-10-22T00:45:50.000Z,14.100000381469727
2022-10-22T00:46:05.000Z,14.100000381469727
2022-10-22T00:46:20.000Z,14.100000381469727
2022-10-22T00:46:35.000Z,14.100000381469727
2022-10-22T00:46:50.000Z,14.0
2022-10-22T00:47:05.000Z,14.100000381469727
2022-10-22T00:47:20.000Z,14.100000381469727
2022-10-22T00:47:35.000Z,14.100000381469727
2022-10-22T00:47:50.000Z,14.100000381469727
2022-10-22T00:48:05.000Z,14.100000381469727
2022-10-22T00:48:20.000Z,14.100000381469727
2022-10-22T00:48:35.000Z,14.0
2022-10-22T00:48:50.000Z,14.100000381469727
2022-10-22T00:49:05.000Z,14.100000381469727
2022-10-22T00:49:20.000Z,14.100000381469727
2022-10-22T00:49:34.000Z,14.100000381469727
2022-10-22T00:49:49.000Z,14.100000381469727
2022-10-22T00:50:04.000Z,14.100000381469727
2022-10-22T00:50:19.000Z,14.100000381469727
2022-10-22T00:50:34.000Z,14.100000381469727
2022-10-22T00:50:49.000Z,14.100000381469727
2022-10-22T00:51:04.000Z,14.100000381469727
2022-10-22T00:51:19.000Z,14.100000381469727
2022-10-22T00:51:34.000Z,14.100000381469727
2022-10-22T00:51:50.000Z,14.100000381469727
2022-10-22T00:52:05.000Z,14.100000381469727
2022-10-22T00:52:20.000Z,14.100000381469727
2022-10-22T00:52:35.000Z,14.0
2022-10-22T00:52:50.000Z,14.100000381469727
2022-10-22T00:53:05.000Z,14.0
2022-10-22T00:53:20.000Z,14.0
2022-10-22T00:53:35.000Z,14.0
2022-10-22T00:53:50.000Z,14.0
2022-10-22T00:54:05.000Z,14.0
2022-10-22T00:54:20.000Z,14.0
2022-10-22T00:54:35.000Z,14.0
2022-10-22T00:54:50.000Z,14.0
2022-10-22T00:55:05.000Z,14.0
2022-10-22T00:55:20.000Z,14.0
2022-10-22T00:55:35.000Z,14.0
2022-10-22T00:55:50.000Z,14.0
2022-10-22T00:56:04.000Z,14.0
2022-10-22T00:56:19.000Z,14.0
2022-10-22T00:56:34.000Z,14.0
2022-10-22T00:56:49.000Z,14.0
2022-10-22T00:57:04.000Z,14.0
2022-10-22T00:57:19.000Z,14.0
2022-10-22T00:57:34.000Z,14.0
2022-10-22T00:57:49.000Z,14.0
2022-10-22T00:58:04.000Z,14.0
2022-10-22T00:58:19.000Z,14.0
2022-10-22T00:58:34.000Z,14.0
2022-10-22T00:58:49.000Z,14.0
2022-10-22T00:59:04.000Z,14.0
2022-10-22T00:59:20.000Z,13.899999618530273
2022-10-22T00:59:35.000Z,13.899999618530273
2022-10-22T00:59:50.000Z,13.899999618530273
2022-10-22T01:00:05.000Z,13.899999618530273
2022-10-22T01:00:20.000Z,13.899999618530273
2022-10-22T01:00:35.000Z,13.899999618530273
2022-10-22T01:00:50.000Z,13.899999618530273
2022-10-22T01:01:05.000Z,13.899999618530273
2022-10-22T01:01:20.000Z,13.899999618530273
2022-10-22T01:01:35.000Z,13.899999618530273
2022-10-22T01:01:50.000Z,13.899999618530273
2022-10-22T01:02:05.000Z,13.899999618530273
2022-10-22T01:02:20.000Z,13.899999618530273
2022-10-22T01:02:35.000Z,13.899999618530273
2022-10-22T01:02:50.000Z,13.899999618530273
2022-10-22T01:03:05.000Z,13.800000190734863
2022-10-22T01:03:19.000Z,13.800000190734863
2022-10-22T01:03:34.000Z,13.800000190734863
2022-10-22T01:03:49.000Z,13.800000190734863
2022-10-22T01:04:04.000Z,13.800000190734863
2022-10-22T01:04:19.000Z,13.800000190734863
2022-10-22T01:04:34.000Z,13.800000190734863
2022-10-22T01:04:49.000Z,13.800000190734863
2022-10-22T01:05:04.000Z,13.800000190734863
2022-10-22T01:05:19.000Z,13.800000190734863
2022-10-22T01:05:34.000Z,13.800000190734863
2022-10-22T01:05:49.000Z,13.800000190734863
2022-10-22T01:06:04.000Z,13.800000190734863
2022-10-22T01:06:19.000Z,13.699999809265137
2022-10-22T01:06:34.000Z,13.699999809265137
2022-10-22T01:06:49.000Z,13.699999809265137
2022-10-22T01:07:04.000Z,13.699999809265137
2022-10-22T01:07:19.000Z,13.699999809265137
2022-10-22T01:07:34.000Z,13.699999809265137
2022-10-22T01:07:49.000Z,13.699999809265137
2022-10-22T01:08:04.000Z,13.699999809265137
2022-10-22T01:08:20.000Z,13.699999809265137
2022-10-22T01:08:35.000Z,13.699999809265137
2022-10-22T01:08:50.000Z,13.699999809265137
2022-10-22T01:09:05.000Z,13.699999809265137
2022-10-22T01:09:20.000Z,13.699999809265137
2022-10-22T01:09:35.000Z,13.699999809265137
2022-10-22T01:09:50.000Z,13.699999809265137
2022-10-22T01:10:05.000Z,13.699999809265137
2022-10-22T01:10:20.000Z,13.699999809265137
2022-10-22T01:10:35.000Z,13.699999809265137
2022-10-22T01:10:50.000Z,13.699999809265137
2022-10-22T01:11:05.000Z,13.699999809265137
2022-10-22T01:11:20.000Z,13.699999809265137
2022-10-22T01:11:35.000Z,13.699999809265137
2022-10-22T01:11:50.000Z,13.699999809265137
2022-10-22T01:12:05.000Z,13.699999809265137
2022-10-22T01:12:20.000Z,13.699999809265137
2022-10-22T01:12:35.000Z,13.699999809265137
2022-10-22T01:12:50.000Z,13.699999809265137
2022-10-22T01:13:05.000Z,13.699999809265137
2022-10-22T01:13:20.000Z,13.600000381469727
2022-10-22T01:13:35.000Z,13.699999809265137
2022-10-22T01:13:50.000Z,13.600000381469727
2022-10-22T01:14:04.000Z,13.600000381469727
2022-10-22T01:14:19.000Z,13.600000381469727
2022-10-22T01:14:34.000Z,13.600000381469727
2022-10-22T01:14:49.000Z,13.600000381469727
2022-10-22T01:15:04.000Z,13.600000381469727
2022-10-22T01:15:19.000Z,13.600000381469727
2022-10-22T01:15:34.000Z,13.600000381469727
2022-10-22T01:15:49.000Z,13.600000381469727
2022-10-22T01:16:04.000Z,13.600000381469727
2022-10-22T01:16:19.000Z,13.600000381469727
2022-10-22T01:16:34.000Z,13.600000381469727
2022-10-22T01:16:49.000Z,13.5
2022-10-22T01:17:04.000Z,13.5
2022-10-22T01:17:34.000Z,13.600000381469727
2022-10-22T01:17:49.000Z,13.5
2022-10-22T01:18:04.000Z,13.5
2022-10-22T01:18:19.000Z,13.5
2022-10-22T01:18:34.000Z,13.5
2022-10-22T01:18:50.000Z,13.5
2022-10-22T01:19:05.000Z,13.5
2022-10-22T01:19:20.000Z,13.5
2022-10-22T01:19:35.000Z,13.5
2022-10-22T01:19:50.000Z,13.399999618530273
2022-10-22T01:20:05.000Z,13.399999618530273
2022-10-22T01:20:20.000Z,13.399999618530273
2022-10-22T01:20:35.000Z,13.399999618530273
2022-10-22T01:20:50.000Z,13.399999618530273
2022-10-22T01:21:05.000Z,13.399999618530273
2022-10-22T01:21:20.000Z,13.399999618530273
2022-10-22T01:21:35.000Z,13.399999618530273
2022-10-22T01:21:50.000Z,13.5
2022-10-22T01:22:05.000Z,13.5
2022-10-22T01:22:20.000Z,13.399999618530273
2022-10-22T01:22:35.000Z,13.5
2022-10-22T01:22:50.000Z,13.5
2022-10-22T01:23:05.000Z,13.399999618530273
2022-10-22T01:23:20.000Z,13.5
2022-10-22T01:23:35.000Z,13.399999618530273
2022-10-22T01:23:50.000Z,13.399999618530273
2022-10-22T01:24:05.000Z,13.399999618530273
2022-10-22T01:24:19.000Z,13.399999618530273
2022-10-22T01:24:34.000Z,13.399999618530273
2022-10-22T01:24:49.000Z,13.300000190734863
2022-10-22T01:25:04.000Z,13.300000190734863
2022-10-22T01:25:19.000Z,13.300000190734863
2022-10-22T01:25:34.000Z,13.300000190734863
2022-10-22T01:25:49.000Z,13.300000190734863
2022-10-22T01:26:04.000Z,13.300000190734863
2022-10-22T01:26:19.000Z,13.300000190734863
2022-10-22T01:26:34.000Z,13.300000190734863
2022-10-22T01:26:49.000Z,13.300000190734863
2022-10-22T01:27:04.000Z,13.300000190734863
2022-10-22T01:27:19.000Z,13.300000190734863
2022-10-22T01:27:34.000Z,13.300000190734863
2022-10-22T01:27:49.000Z,13.300000190734863
2022-10-22T01:28:04.000Z,13.300000190734863
2022-10-22T01:28:19.000Z,13.300000190734863
2022-10-22T01:28:34.000Z,13.300000190734863
2022-10-22T01:28:49.000Z,13.300000190734863
2022-10-22T01:29:04.000Z,13.300000190734863
2022-10-22T01:29:20.000Z,13.300000190734863
2022-10-22T01:29:35.000Z,13.300000190734863
2022-10-22T01:29:50.000Z,13.300000190734863
2022-10-22T01:30:05.000Z,13.300000190734863
2022-10-22T01:30:20.000Z,13.300000190734863
2022-10-22T01:30:35.000Z,13.300000190734863
2022-10-22T01:30:50.000Z,13.300000190734863
2022-10-22T01:31:05.000Z,13.300000190734863
2022-10-22T01:31:20.000Z,13.300000190734863
2022-10-22T01:31:35.000Z,13.300000190734863
2022-10-22T01:31:50.000Z,13.300000190734863
2022-10-22T01:32:05.000Z,13.300000190734863
2022-10-22T01:32:20.000Z,13.300000190734863
2022-10-22T01:32:35.000Z,13.300000190734863
2022-10-22T01:32:50.000Z,13.300000190734863
2022-10-22T01:33:05.000Z,13.300000190734863
2022-10-22T01:33:20.000Z,13.300000190734863
2022-10-22T01:33:35.000Z,13.300000190734863
2022-10-22T01:33:50.000Z,13.300000190734863
2022-10-22T01:34:05.000Z,13.300000190734863
2022-10-22T01:34:20.000Z,13.300000190734863
2022-10-22T01:34:35.000Z,13.300000190734863
2022-10-22T01:34:50.000Z,13.300000190734863
2022-10-22T01:35:05.000Z,13.300000190734863
2022-10-22T01:35:19.000Z,13.300000190734863
2022-10-22T01:35:34.000Z,13.300000190734863
2022-10-22T01:35:49.000Z,13.300000190734863
2022-10-22T01:36:04.000Z,13.300000190734863
2022-10-22T01:36:19.000Z,13.300000190734863
2022-10-22T01:36:34.000Z,13.399999618530273
2022-10-22T01:36:49.000Z,13.399999618530273
2022-10-22T01:37:04.000Z,13.399999618530273
2022-10-22T01:37:19.000Z,13.399999618530273
2022-10-22T01:37:34.000Z,13.399999618530273
2022-10-22T01:37:49.000Z,13.399999618530273
2022-10-22T01:38:04.000Z,13.399999618530273
2022-10-22T01:38:19.000Z,13.399999618530273
2022-10-22T01:38:34.000Z,13.399999618530273
2022-10-22T01:38:49.000Z,13.399999618530273
2022-10-22T01:39:04.000Z,13.399999618530273
2022-10-22T01:39:19.000Z,13.399999618530273
2022-10-22T01:39:34.000Z,13.399999618530273
2022-10-22T01:39:49.000Z,13.399999618530273
2022-10-22T01:40:05.000Z,13.399999618530273
2022-10-22T01:40:20.000Z,13.399999618530273
2022-10-22T01:40:35.000Z,13.399999618530273
2022-10-22T01:40:50.000Z,13.399999618530273
2022-10-22T01:41:05.000Z,13.399999618530273
2022-10-22T01:41:20.000Z,13.399999618530273
2022-10-22T01:41:35.000Z,13.399999618530273
2022-10-22T01:41:50.000Z,13.399999618530273
2022-10-22T01:42:05.000Z,13.399999618530273
2022-10-22T01:42:20.000Z,13.399999618530273
2022-10-22T01:42:35.000Z,13.399999618530273
2022-10-22T01:42:50.000Z,13.399999618530273
2022-10-22T01:43:05.000Z,13.399999618530273
2022-10-22T01:43:20.000Z,13.399999618530273
2022-10-22T01:43:35.000Z,13.399999618530273
2022-10-22T01:43:50.000Z,13.399999618530273
2022-10-22T01:44:05.000Z,13.399999618530273
2022-10-22T01:44:20.000Z,13.399999618530273
2022-10-22T01:44:50.000Z,13.399999618530273
2022-10-22T01:45:05.000Z,13.399999618530273
2022-10-22T01:45:20.000Z,13.399999618530273
2022-10-22T01:45:35.000Z,13.5
2022-10-22T01:45:49.000Z,13.5
2022-10-22T01:46:04.000Z,13.5
2022-10-22T01:46:19.000Z,13.5
2022-10-22T01:46:34.000Z,13.5
2022-10-22T01:46:49.000Z,13.5
2022-10-22T01:47:04.000Z,13.600000381469727
2022-10-22T01:47:19.000Z,13.600000381469727
2022-10-22T01:47:34.000Z,13.600000381469727
2022-10-22T01:47:49.000Z,13.600000381469727
2022-10-22T01:48:04.000Z,13.600000381469727
2022-10-22T01:48:19.000Z,13.600000381469727
2022-10-22T01:48:34.000Z,13.600000381469727
2022-10-22T01:48:49.000Z,13.600000381469727
2022-10-22T01:49:04.000Z,13.600000381469727
2022-10-22T01:49:19.000Z,13.600000381469727
2022-10-22T01:49:34.000Z,13.600000381469727
2022-10-22T01:49:49.000Z,13.600000381469727
2022-10-22T01:50:04.000Z,13.600000381469727
2022-10-22T01:50:19.000Z,13.600000381469727
2022-10-22T01:50:35.000Z,13.600000381469727
2022-10-22T01:50:50.000Z,13.600000381469727
2022-10-22T01:51:05.000Z,13.600000381469727
2022-10-22T01:51:20.000Z,13.600000381469727
2022-10-22T01:51:35.000Z,13.600000381469727
2022-10-22T01:51:50.000Z,13.600000381469727
2022-10-22T01:52:05.000Z,13.600000381469727
2022-10-22T01:52:20.000Z,13.600000381469727
2022-10-22T01:52:35.000Z,13.600000381469727
2022-10-22T01:52:50.000Z,13.600000381469727
2022-10-22T01:53:05.000Z,13.600000381469727
2022-10-22T01:53:20.000Z,13.600000381469727
2022-10-22T01:53:35.000Z,13.600000381469727
2022-10-22T01:53:50.000Z,13.600000381469727
2022-10-22T01:54:05.000Z,13.600000381469727
2022-10-22T01:54:20.000Z,13.600000381469727
2022-10-22T01:54:35.000Z,13.600000381469727
2022-10-22T01:54:50.000Z,13.600000381469727
2022-10-22T01:55:05.000Z,13.600000381469727
2022-10-22T01:55:20.000Z,13.600000381469727
2022-10-22T01:55:35.000Z,13.600000381469727
2022-10-22T01:55:50.000Z,13.600000381469727
2022-10-22T01:56:04.000Z,13.600000381469727
2022-10-22T01:56:19.000Z,13.600000381469727
2022-10-22T01:56:34.000Z,13.600000381469727
2022-10-22T01:56:49.000Z,13.600000381469727
2022-10-22T01:57:04.000Z,13.600000381469727
2022-10-22T01:57:19.000Z,13.600000381469727
2022-10-22T01:57:34.000Z,13.600000381469727
2022-10-22T01:57:49.000Z,13.600000381469727
2022-10-22T01:58:04.000Z,13.600000381469727
2022-10-22T01:58:19.000Z,13.600000381469727
2022-10-22T01:58:34.000Z,13.600000381469727
2022-10-22T01:58:49.000Z,13.600000381469727
2022-10-22T01:59:04.000Z,13.600000381469727
2022-10-22T01:59:19.000Z,13.600000381469727
2022-10-22T01:59:34.000Z,13.699999809265137
2022-10-22T01:59:49.000Z,13.600000381469727
2022-10-22T02:00:04.000Z,13.600000381469727
2022-10-22T02:00:19.000Z,13.600000381469727
2022-10-22T02:00:34.000Z,13.600000381469727
2022-10-22T02:00:50.000Z,13.699999809265137
2022-10-22T02:01:05.000Z,13.699999809265137
2022-10-22T02:01:20.000Z,13.699999809265137
2022-10-22T02:01:35.000Z,13.699999809265137
2022-10-22T02:01:50.000Z,13.699999809265137
2022-10-22T02:02:05.000Z,13.699999809265137
2022-10-22T02:02:20.000Z,13.699999809265137
2022-10-22T02:02:35.000Z,13.699999809265137
2022-10-22T02:02:50.000Z,13.699999809265137
2022-10-22T02:03:05.000Z,13.699999809265137
2022-10-22T02:03:20.000Z,13.699999809265137
2022-10-22T02:03:35.000Z,13.699999809265137
2022-10-22T02:03:50.000Z,13.699999809265137
2022-10-22T02:04:05.000Z,13.699999809265137
2022-10-22T02:04:20.000Z,13.699999809265137
2022-10-22T02:04:35.000Z,13.699999809265137
2022-10-22T02:04:50.000Z,13.699999809265137
2022-10-22T02:05:05.000Z,13.699999809265137
2022-10-22T02:05:20.000Z,13.699999809265137
2022-10-22T02:05:35.000Z,13.699999809265137
2022-10-22T02:05:50.000Z,13.699999809265137
2022-10-22T02:06:05.000Z,13.699999809265137
2022-10-22T02:06:20.000Z,13.699999809265137
2022-10-22T02:06:34.000Z,13.699999809265137
2022-10-22T02:06:49.000Z,13.699999809265137
2022-10-22T02:07:04.000Z,13.699999809265137
2022-10-22T02:07:19.000Z,13.699999809265137
2022-10-22T02:07:34.000Z,13.699999809265137
2022-10-22T02:07:49.000Z,13.699999809265137
2022-10-22T02:08:04.000Z,13.699999809265137
2022-10-22T02:08:19.000Z,13.699999809265137
2022-10-22T02:08:34.000Z,13.699999809265137
2022-10-22T02:08:49.000Z,13.699999809265137
2022-10-22T02:09:04.000Z,13.699999809265137
2022-10-22T02:09:19.000Z,13.699999809265137
2022-10-22T02:09:34.000Z,13.699999809265137
2022-10-22T02:09:49.000Z,13.699999809265137
2022-10-22T02:10:04.000Z,13.699999809265137
2022-10-22T02:10:19.000Z,13.699999809265137
2022-10-22T02:10:34.000Z,13.699999809265137
2022-10-22T02:10:49.000Z,13.699999809265137
2022-10-22T02:11:04.000Z,13.699999809265137
2022-10-22T02:11:20.000Z,13.699999809265137
2022-10-22T02:11:35.000Z,13.699999809265137
2022-10-22T02:11:50.000Z,13.699999809265137
2022-10-22T02:12:20.000Z,13.800000190734863
2022-10-22T02:12:35.000Z,13.800000190734863
2022-10-22T02:12:50.000Z,13.800000190734863
2022-10-22T02:13:05.000Z,13.800000190734863
2022-10-22T02:13:20.000Z,13.800000190734863
2022-10-22T02:13:35.000Z,13.800000190734863
2022-10-22T02:13:50.000Z,13.800000190734863
2022-10-22T02:14:05.000Z,13.800000190734863
2022-10-22T02:14:20.000Z,13.899999618530273
2022-10-22T02:14:35.000Z,13.899999618530273
2022-10-22T02:14:50.000Z,13.800000190734863
2022-10-22T02:15:05.000Z,13.899999618530273
2022-10-22T02:15:20.000Z,13.899999618530273
2022-10-22T02:15:35.000Z,13.899999618530273
2022-10-22T02:15:50.000Z,13.899999618530273
2022-10-22T02:16:05.000Z,13.899999618530273
2022-10-22T02:16:20.000Z,13.899999618530273
2022-10-22T02:16:35.000Z,13.899999618530273
2022-10-22T02:16:50.000Z,13.899999618530273
2022-10-22T02:17:04.000Z,13.899999618530273
2022-10-22T02:17:19.000Z,13.800000190734863
2022-10-22T02:17:34.000Z,13.800000190734863
2022-10-22T02:17:49.000Z,13.800000190734863
2022-10-22T02:18:04.000Z,13.800000190734863
2022-10-22T02:18:19.000Z,13.800000190734863
2022-10-22T02:18:34.000Z,13.800000190734863
2022-10-22T02:18:49.000Z,13.800000190734863
2022-10-22T02:19:04.000Z,13.699999809265137
2022-10-22T02:19:19.000Z,13.699999809265137
2022-10-22T02:19:34.000Z,13.699999809265137
2022-10-22T02:19:49.000Z,13.699999809265137
2022-10-22T02:20:04.000Z,13.699999809265137
2022-10-22T02:20:19.000Z,13.699999809265137
2022-10-22T02:20:34.000Z,13.699999809265137
2022-10-22T02:20:49.000Z,13.699999809265137
2022-10-22T02:21:04.000Z,13.699999809265137
2022-10-22T02:21:19.000Z,13.699999809265137
2022-10-22T02:21:34.000Z,13.699999809265137
2022-10-22T02:21:49.000Z,13.699999809265137
2022-10-22T02:22:05.000Z,13.699999809265137
2022-10-22T02:22:20.000Z,13.699999809265137
2022-10-22T02:22:35.000Z,13.699999809265137
2022-10-22T02:22:50.000Z,13.699999809265137
2022-10-22T02:23:05.000Z,13.699999809265137
2022-10-22T02:23:20.000Z,13.699999809265137
2022-10-22T02:23:35.000Z,13.699999809265137
2022-10-22T02:23:50.000Z,13.699999809265137
2022-10-22T02:24:05.000Z,13.699999809265137
2022-10-22T02:24:20.000Z,13.699999809265137
2022-10-22T02:24:35.000Z,13.699999809265137
2022-10-22T02:24:50.000Z,13.699999809265137
2022-10-22T02:25:05.000Z,13.699999809265137
2022-10-22T02:25:20.000Z,13.699999809265137